sensor_id;sensor_type;location;lat;lon;timestamp;pressure;altitude;pressure_sealevel;temperature;humidity
84935;BME280;75205;53.820;10.730;2024-01-15T00:01:08;98978.31;;;1.43;88.03
84935;BME280;75205;53.820;10.730;2024-01-15T00:03:35;98973.03;;;1.39;89.07
84935;BME280;75205;53.820;10.730;2024-01-15T00:06:01;98975.38;;;1.36;88.79
84935;BME280;75205;53.820;10.730;2024-01-15T00:08:28;98980.47;;;1.37;90.40
84935;BME280;75205;53.820;10.730;2024-01-15T00:10:54;98975.81;;;1.43;88.19
84935;BME280;75205;53.820;10.730;2024-01-15T00:13:20;98969.31;;;1.47;88.80
84935;BME280;75205;53.820;10.730;2024-01-15T00:15:47;98955.63;;;1.42;89.26
84935;BME280;75205;53.820;10.730;2024-01-15T00:18:13;98965.75;;;1.43;89.91
84935;BME280;75205;53.820;10.730;2024-01-15T00:20:40;98954.25;;;1.47;90.15
84935;BME280;75205;53.820;10.730;2024-01-15T00:23:06;98948.22;;;1.59;89.16
84935;BME280;75205;53.820;10.730;2024-01-15T00:25:33;98952.56;;;1.78;89.75
84935;BME280;75205;53.820;10.730;2024-01-15T00:27:59;98943.03;;;1.87;88.78
84935;BME280;75205;53.820;10.730;2024-01-15T00:30:26;98950.25;;;1.97;88.85
84935;BME280;75205;53.820;10.730;2024-01-15T00:32:53;98948.19;;;2.06;88.65
84935;BME280;75205;53.820;10.730;2024-01-15T00:35:19;98942.28;;;2.05;87.14
84935;BME280;75205;53.820;10.730;2024-01-15T00:37:46;98945.75;;;2.07;87.99
84935;BME280;75205;53.820;10.730;2024-01-15T00:40:12;98924.53;;;2.02;87.64
84935;BME280;75205;53.820;10.730;2024-01-15T00:42:38;98916.31;;;2.05;88.58
84935;BME280;75205;53.820;10.730;2024-01-15T00:45:05;98915.50;;;2.06;89.52
84935;BME280;75205;53.820;10.730;2024-01-15T00:47:34;98896.19;;;2.05;87.23
84935;BME280;75205;53.820;10.730;2024-01-15T00:50:01;98891.31;;;2.08;88.12
84935;BME280;75205;53.820;10.730;2024-01-15T00:52:27;98883.91;;;2.11;89.01
84935;BME280;75205;53.820;10.730;2024-01-15T00:54:54;98882.66;;;2.19;87.62
84935;BME280;75205;53.820;10.730;2024-01-15T00:57:21;98875.44;;;2.25;87.66
84935;BME280;75205;53.820;10.730;2024-01-15T00:59:47;98868.84;;;2.27;88.47
84935;BME280;75205;53.820;10.730;2024-01-15T01:02:14;98863.94;;;2.30;89.00
84935;BME280;75205;53.820;10.730;2024-01-15T01:04:41;98852.06;;;2.27;86.64
84935;BME280;75205;53.820;10.730;2024-01-15T01:07:07;98873.53;;;2.21;88.45
84935;BME280;75205;53.820;10.730;2024-01-15T01:09:33;98858.91;;;2.14;87.88
84935;BME280;75205;53.820;10.730;2024-01-15T01:12:00;98865.22;;;2.06;88.21
84935;BME280;75205;53.820;10.730;2024-01-15T01:14:26;98865.06;;;2.03;88.68
84935;BME280;75205;53.820;10.730;2024-01-15T01:16:53;98862.41;;;2.00;90.01
84935;BME280;75205;53.820;10.730;2024-01-15T01:19:19;98866.19;;;1.92;90.54
84935;BME280;75205;53.820;10.730;2024-01-15T01:21:46;98856.59;;;1.85;90.63
84935;BME280;75205;53.820;10.730;2024-01-15T01:24:12;98870.59;;;1.80;89.60
84935;BME280;75205;53.820;10.730;2024-01-15T01:26:39;98866.81;;;1.72;90.38
84935;BME280;75205;53.820;10.730;2024-01-15T01:29:05;98851.41;;;1.66;90.93
84935;BME280;75205;53.820;10.730;2024-01-15T01:31:32;98833.88;;;1.67;90.19
84935;BME280;75205;53.820;10.730;2024-01-15T01:33:58;98841.50;;;1.69;90.26
84935;BME280;75205;53.820;10.730;2024-01-15T01:36:25;98850.00;;;1.71;90.90
84935;BME280;75205;53.820;10.730;2024-01-15T01:38:51;98886.66;;;1.67;91.45
84935;BME280;75205;53.820;10.730;2024-01-15T01:41:18;98860.50;;;1.64;91.89
84935;BME280;75205;53.820;10.730;2024-01-15T01:43:44;98866.84;;;1.57;90.95
84935;BME280;75205;53.820;10.730;2024-01-15T01:46:11;98854.06;;;1.53;90.76
84935;BME280;75205;53.820;10.730;2024-01-15T01:48:38;98849.91;;;1.53;92.22
84935;BME280;75205;53.820;10.730;2024-01-15T01:51:04;98844.16;;;1.56;92.41
84935;BME280;75205;53.820;10.730;2024-01-15T01:53:32;98847.63;;;1.58;91.39
84935;BME280;75205;53.820;10.730;2024-01-15T01:56:00;98844.03;;;1.53;92.09
84935;BME280;75205;53.820;10.730;2024-01-15T01:58:27;98840.63;;;1.52;91.70
84935;BME280;75205;53.820;10.730;2024-01-15T02:00:55;98835.53;;;1.51;92.80
84935;BME280;75205;53.820;10.730;2024-01-15T02:03:21;98840.56;;;1.51;92.42
84935;BME280;75205;53.820;10.730;2024-01-15T02:05:48;98827.75;;;1.46;91.17
84935;BME280;75205;53.820;10.730;2024-01-15T02:08:15;98829.41;;;1.46;92.25
84935;BME280;75205;53.820;10.730;2024-01-15T02:10:42;98832.94;;;1.49;92.22
84935;BME280;75205;53.820;10.730;2024-01-15T02:13:09;98827.22;;;1.52;91.64
84935;BME280;75205;53.820;10.730;2024-01-15T02:15:35;98837.75;;;1.61;91.63
84935;BME280;75205;53.820;10.730;2024-01-15T02:18:03;98822.66;;;1.61;91.69
84935;BME280;75205;53.820;10.730;2024-01-15T02:20:30;98821.50;;;1.54;91.99
84935;BME280;75205;53.820;10.730;2024-01-15T02:23:02;98821.56;;;1.56;92.55
84935;BME280;75205;53.820;10.730;2024-01-15T02:25:29;98829.34;;;1.60;92.35
84935;BME280;75205;53.820;10.730;2024-01-15T02:27:55;98829.44;;;1.62;92.49
84935;BME280;75205;53.820;10.730;2024-01-15T02:30:22;98812.69;;;1.62;92.90
84935;BME280;75205;53.820;10.730;2024-01-15T02:32:49;98824.22;;;1.59;91.41
84935;BME280;75205;53.820;10.730;2024-01-15T02:35:15;98809.72;;;1.53;92.44
84935;BME280;75205;53.820;10.730;2024-01-15T02:37:42;98819.78;;;1.53;92.00
84935;BME280;75205;53.820;10.730;2024-01-15T02:40:09;98822.22;;;1.52;91.89
84935;BME280;75205;53.820;10.730;2024-01-15T02:42:35;98820.47;;;1.51;91.84
84935;BME280;75205;53.820;10.730;2024-01-15T02:45:02;98821.88;;;1.46;92.78
84935;BME280;75205;53.820;10.730;2024-01-15T02:47:28;98810.25;;;1.48;92.09
84935;BME280;75205;53.820;10.730;2024-01-15T02:49:55;98814.41;;;1.47;92.44
84935;BME280;75205;53.820;10.730;2024-01-15T02:52:21;98800.34;;;1.51;92.57
84935;BME280;75205;53.820;10.730;2024-01-15T02:54:48;98819.03;;;1.56;92.42
84935;BME280;75205;53.820;10.730;2024-01-15T02:57:14;98805.00;;;1.59;92.55
84935;BME280;75205;53.820;10.730;2024-01-15T02:59:41;98794.25;;;1.62;92.34
84935;BME280;75205;53.820;10.730;2024-01-15T03:02:08;98801.78;;;1.62;91.49
84935;BME280;75205;53.820;10.730;2024-01-15T03:04:34;98798.47;;;1.63;91.16
84935;BME280;75205;53.820;10.730;2024-01-15T03:07:01;98802.56;;;1.61;92.79
84935;BME280;75205;53.820;10.730;2024-01-15T03:09:27;98791.16;;;1.67;91.91
84935;BME280;75205;53.820;10.730;2024-01-15T03:11:53;98804.00;;;1.72;91.95
84935;BME280;75205;53.820;10.730;2024-01-15T03:14:20;98795.72;;;1.74;92.09
84935;BME280;75205;53.820;10.730;2024-01-15T03:16:46;98809.38;;;1.79;91.05
84935;BME280;75205;53.820;10.730;2024-01-15T03:19:13;98790.09;;;1.78;91.28
84935;BME280;75205;53.820;10.730;2024-01-15T03:21:39;98803.03;;;1.70;92.24
84935;BME280;75205;53.820;10.730;2024-01-15T03:24:06;98801.31;;;1.69;92.24
84935;BME280;75205;53.820;10.730;2024-01-15T03:26:32;98802.41;;;1.74;91.81
84935;BME280;75205;53.820;10.730;2024-01-15T03:28:59;98795.59;;;1.71;91.46
84935;BME280;75205;53.820;10.730;2024-01-15T03:31:25;98803.50;;;1.63;91.22
84935;BME280;75205;53.820;10.730;2024-01-15T03:33:52;98812.53;;;1.59;91.00
84935;BME280;75205;53.820;10.730;2024-01-15T03:36:19;98804.84;;;1.56;90.12
84935;BME280;75205;53.820;10.730;2024-01-15T03:38:45;98812.31;;;1.55;90.38
84935;BME280;75205;53.820;10.730;2024-01-15T03:41:11;98808.94;;;1.54;89.89
84935;BME280;75205;53.820;10.730;2024-01-15T03:43:38;98811.50;;;1.56;90.26
84935;BME280;75205;53.820;10.730;2024-01-15T03:46:05;98827.84;;;1.64;90.55
84935;BME280;75205;53.820;10.730;2024-01-15T03:48:32;98835.25;;;1.77;90.40
84935;BME280;75205;53.820;10.730;2024-01-15T03:50:58;98834.28;;;1.91;89.72
84935;BME280;75205;53.820;10.730;2024-01-15T03:53:25;98842.44;;;2.03;87.97
84935;BME280;75205;53.820;10.730;2024-01-15T03:55:51;98829.25;;;2.07;87.38
84935;BME280;75205;53.820;10.730;2024-01-15T03:58:18;98839.13;;;2.04;89.80
84935;BME280;75205;53.820;10.730;2024-01-15T04:00:44;98851.47;;;1.99;88.69
84935;BME280;75205;53.820;10.730;2024-01-15T04:03:11;98841.34;;;1.98;89.43
84935;BME280;75205;53.820;10.730;2024-01-15T04:05:38;98846.53;;;2.01;88.37
84935;BME280;75205;53.820;10.730;2024-01-15T04:08:04;98847.47;;;2.03;87.81
84935;BME280;75205;53.820;10.730;2024-01-15T04:10:31;98857.31;;;1.98;87.83
84935;BME280;75205;53.820;10.730;2024-01-15T04:12:57;98854.25;;;1.88;89.37
84935;BME280;75205;53.820;10.730;2024-01-15T04:15:25;98859.13;;;1.85;89.63
84935;BME280;75205;53.820;10.730;2024-01-15T04:17:52;98870.03;;;1.85;88.28
84935;BME280;75205;53.820;10.730;2024-01-15T04:20:19;98864.16;;;1.85;88.58
84935;BME280;75205;53.820;10.730;2024-01-15T04:22:48;98868.94;;;1.80;89.72
84935;BME280;75205;53.820;10.730;2024-01-15T04:25:15;98856.91;;;1.75;88.60
84935;BME280;75205;53.820;10.730;2024-01-15T04:27:41;98875.28;;;1.74;90.38
84935;BME280;75205;53.820;10.730;2024-01-15T04:30:08;98860.91;;;1.71;89.35
84935;BME280;75205;53.820;10.730;2024-01-15T04:32:34;98868.22;;;1.67;88.32
84935;BME280;75205;53.820;10.730;2024-01-15T04:35:01;98869.06;;;1.67;89.21
84935;BME280;75205;53.820;10.730;2024-01-15T04:37:27;98868.75;;;1.61;88.14
84935;BME280;75205;53.820;10.730;2024-01-15T04:39:53;98863.97;;;1.50;87.44
84935;BME280;75205;53.820;10.730;2024-01-15T04:42:21;98883.19;;;1.49;89.27
84935;BME280;75205;53.820;10.730;2024-01-15T04:44:47;98864.91;;;1.52;87.58
84935;BME280;75205;53.820;10.730;2024-01-15T04:47:14;98863.09;;;1.49;88.41
84935;BME280;75205;53.820;10.730;2024-01-15T04:49:40;98861.53;;;1.51;87.45
84935;BME280;75205;53.820;10.730;2024-01-15T04:52:07;98870.69;;;1.51;87.86
84935;BME280;75205;53.820;10.730;2024-01-15T04:54:36;98860.50;;;1.48;87.56
84935;BME280;75205;53.820;10.730;2024-01-15T04:57:03;98867.34;;;1.50;88.43
84935;BME280;75205;53.820;10.730;2024-01-15T04:59:29;98867.72;;;1.58;88.62
84935;BME280;75205;53.820;10.730;2024-01-15T05:01:56;98865.16;;;1.56;88.64
84935;BME280;75205;53.820;10.730;2024-01-15T05:04:23;98871.19;;;1.60;87.85
84935;BME280;75205;53.820;10.730;2024-01-15T05:06:50;98871.44;;;1.64;88.40
84935;BME280;75205;53.820;10.730;2024-01-15T05:09:17;98868.38;;;1.70;87.94
84935;BME280;75205;53.820;10.730;2024-01-15T05:11:44;98860.03;;;1.71;87.24
84935;BME280;75205;53.820;10.730;2024-01-15T05:14:10;98861.44;;;1.66;87.67
84935;BME280;75205;53.820;10.730;2024-01-15T05:16:46;98863.81;;;1.63;87.61
84935;BME280;75205;53.820;10.730;2024-01-15T05:19:13;98868.91;;;1.64;87.53
84935;BME280;75205;53.820;10.730;2024-01-15T05:21:39;98869.88;;;1.66;88.69
84935;BME280;75205;53.820;10.730;2024-01-15T05:24:07;98867.59;;;1.71;88.51
84935;BME280;75205;53.820;10.730;2024-01-15T05:26:33;98874.16;;;1.69;87.67
84935;BME280;75205;53.820;10.730;2024-01-15T05:29:00;98870.97;;;1.71;86.82
84935;BME280;75205;53.820;10.730;2024-01-15T05:31:26;98873.56;;;1.73;88.06
84935;BME280;75205;53.820;10.730;2024-01-15T05:33:53;98875.13;;;1.71;88.84
84935;BME280;75205;53.820;10.730;2024-01-15T05:36:19;98876.94;;;1.73;87.96
84935;BME280;75205;53.820;10.730;2024-01-15T05:38:46;98884.09;;;1.82;89.48
84935;BME280;75205;53.820;10.730;2024-01-15T05:41:13;98886.31;;;1.92;87.87
84935;BME280;75205;53.820;10.730;2024-01-15T05:43:39;98877.44;;;1.98;87.49
84935;BME280;75205;53.820;10.730;2024-01-15T05:46:06;98883.63;;;2.05;87.83
84935;BME280;75205;53.820;10.730;2024-01-15T05:48:32;98874.53;;;2.07;87.96
84935;BME280;75205;53.820;10.730;2024-01-15T05:50:59;98875.63;;;2.12;86.66
84935;BME280;75205;53.820;10.730;2024-01-15T05:53:26;98881.56;;;2.14;85.79
84935;BME280;75205;53.820;10.730;2024-01-15T05:55:52;98880.78;;;2.15;85.80
84935;BME280;75205;53.820;10.730;2024-01-15T05:58:20;98890.13;;;2.17;87.69
84935;BME280;75205;53.820;10.730;2024-01-15T06:00:46;98880.53;;;2.10;84.97
84935;BME280;75205;53.820;10.730;2024-01-15T06:03:14;98884.94;;;2.14;84.80
84935;BME280;75205;53.820;10.730;2024-01-15T06:05:40;98882.66;;;2.19;84.21
84935;BME280;75205;53.820;10.730;2024-01-15T06:08:07;98897.94;;;2.22;84.83
84935;BME280;75205;53.820;10.730;2024-01-15T06:10:33;98892.16;;;2.24;83.63
84935;BME280;75205;53.820;10.730;2024-01-15T06:13:00;98893.03;;;2.25;83.91
84935;BME280;75205;53.820;10.730;2024-01-15T06:15:26;98899.34;;;2.17;83.89
84935;BME280;75205;53.820;10.730;2024-01-15T06:17:53;98900.66;;;2.10;83.90
84935;BME280;75205;53.820;10.730;2024-01-15T06:20:20;98897.16;;;2.07;84.31
84935;BME280;75205;53.820;10.730;2024-01-15T06:22:46;98898.31;;;1.97;83.65
84935;BME280;75205;53.820;10.730;2024-01-15T06:25:12;98896.97;;;1.88;86.72
84935;BME280;75205;53.820;10.730;2024-01-15T06:27:39;98899.47;;;1.72;87.03
84935;BME280;75205;53.820;10.730;2024-01-15T06:30:06;98907.03;;;1.72;86.17
84935;BME280;75205;53.820;10.730;2024-01-15T06:32:33;98899.78;;;1.78;86.92
84935;BME280;75205;53.820;10.730;2024-01-15T06:34:59;98913.16;;;1.77;85.71
84935;BME280;75205;53.820;10.730;2024-01-15T06:37:26;98910.47;;;1.74;85.58
84935;BME280;75205;53.820;10.730;2024-01-15T06:39:52;98911.03;;;1.68;86.65
84935;BME280;75205;53.820;10.730;2024-01-15T06:42:19;98904.09;;;1.64;85.27
84935;BME280;75205;53.820;10.730;2024-01-15T06:44:45;98900.97;;;1.68;85.43
84935;BME280;75205;53.820;10.730;2024-01-15T06:47:12;98903.22;;;1.64;85.90
84935;BME280;75205;53.820;10.730;2024-01-15T06:49:38;98919.00;;;1.61;85.34
84935;BME280;75205;53.820;10.730;2024-01-15T06:52:05;98916.03;;;1.68;87.84
84935;BME280;75205;53.820;10.730;2024-01-15T06:54:32;98917.22;;;1.75;85.07
84935;BME280;75205;53.820;10.730;2024-01-15T06:56:59;98921.31;;;1.73;84.53
84935;BME280;75205;53.820;10.730;2024-01-15T06:59:25;98917.59;;;1.66;84.47
84935;BME280;75205;53.820;10.730;2024-01-15T07:01:51;98920.91;;;1.65;87.09
84935;BME280;75205;53.820;10.730;2024-01-15T07:04:18;98927.50;;;1.63;86.41
84935;BME280;75205;53.820;10.730;2024-01-15T07:06:44;98923.97;;;1.60;85.67
84935;BME280;75205;53.820;10.730;2024-01-15T07:09:12;98926.41;;;1.58;86.85
84935;BME280;75205;53.820;10.730;2024-01-15T07:11:38;98931.66;;;1.63;86.10
84935;BME280;75205;53.820;10.730;2024-01-15T07:14:10;98928.34;;;1.64;86.00
84935;BME280;75205;53.820;10.730;2024-01-15T07:16:37;98933.56;;;1.67;85.31
84935;BME280;75205;53.820;10.730;2024-01-15T07:19:04;98940.16;;;1.65;86.40
84935;BME280;75205;53.820;10.730;2024-01-15T07:21:31;98937.72;;;1.66;88.25
84935;BME280;75205;53.820;10.730;2024-01-15T07:23:58;98933.72;;;1.70;86.43
84935;BME280;75205;53.820;10.730;2024-01-15T07:26:24;98938.03;;;1.72;87.11
84935;BME280;75205;53.820;10.730;2024-01-15T07:28:51;98953.97;;;1.73;86.76
84935;BME280;75205;53.820;10.730;2024-01-15T07:31:18;98954.63;;;1.85;85.69
84935;BME280;75205;53.820;10.730;2024-01-15T07:33:45;98956.38;;;2.02;87.45
84935;BME280;75205;53.820;10.730;2024-01-15T07:36:12;98947.59;;;2.10;85.16
84935;BME280;75205;53.820;10.730;2024-01-15T07:38:39;98949.22;;;2.09;85.13
84935;BME280;75205;53.820;10.730;2024-01-15T07:41:05;98949.16;;;2.08;84.58
84935;BME280;75205;53.820;10.730;2024-01-15T07:43:32;98940.50;;;2.03;85.99
84935;BME280;75205;53.820;10.730;2024-01-15T07:45:58;98955.66;;;2.04;85.50
84935;BME280;75205;53.820;10.730;2024-01-15T07:48:25;98959.91;;;2.05;85.93
84935;BME280;75205;53.820;10.730;2024-01-15T07:50:52;98954.19;;;2.08;85.56
84935;BME280;75205;53.820;10.730;2024-01-15T07:53:18;98956.09;;;2.12;85.23
84935;BME280;75205;53.820;10.730;2024-01-15T07:55:45;98965.72;;;2.20;85.30
84935;BME280;75205;53.820;10.730;2024-01-15T07:58:12;98972.25;;;2.33;85.76
84935;BME280;75205;53.820;10.730;2024-01-15T08:00:42;98965.19;;;2.26;85.81
84935;BME280;75205;53.820;10.730;2024-01-15T08:03:08;98961.56;;;2.21;85.26
84935;BME280;75205;53.820;10.730;2024-01-15T08:05:35;98962.97;;;2.16;86.61
84935;BME280;75205;53.820;10.730;2024-01-15T08:08:02;98963.13;;;2.19;87.49
84935;BME280;75205;53.820;10.730;2024-01-15T08:10:28;98971.78;;;2.24;86.96
84935;BME280;75205;53.820;10.730;2024-01-15T08:12:55;98977.16;;;2.30;84.33
84935;BME280;75205;53.820;10.730;2024-01-15T08:15:21;98976.69;;;2.37;85.38
84935;BME280;75205;53.820;10.730;2024-01-15T08:17:48;98979.50;;;2.43;86.77
84935;BME280;75205;53.820;10.730;2024-01-15T08:20:15;98978.63;;;2.42;84.78
84935;BME280;75205;53.820;10.730;2024-01-15T08:22:42;98974.47;;;2.43;84.60
84935;BME280;75205;53.820;10.730;2024-01-15T08:25:09;98979.50;;;2.43;84.05
84935;BME280;75205;53.820;10.730;2024-01-15T08:27:35;98982.16;;;2.46;86.00
84935;BME280;75205;53.820;10.730;2024-01-15T08:30:02;98982.22;;;2.47;85.93
84935;BME280;75205;53.820;10.730;2024-01-15T08:32:30;98974.63;;;2.46;86.62
84935;BME280;75205;53.820;10.730;2024-01-15T08:34:57;98972.09;;;2.46;81.88
84935;BME280;75205;53.820;10.730;2024-01-15T08:37:23;98977.47;;;2.52;82.91
84935;BME280;75205;53.820;10.730;2024-01-15T08:39:49;98990.56;;;2.63;85.33
84935;BME280;75205;53.820;10.730;2024-01-15T08:42:17;98994.41;;;2.72;83.36
84935;BME280;75205;53.820;10.730;2024-01-15T08:44:44;98995.81;;;2.83;84.17
84935;BME280;75205;53.820;10.730;2024-01-15T08:47:10;98996.03;;;2.88;82.04
84935;BME280;75205;53.820;10.730;2024-01-15T08:49:37;98991.72;;;2.85;81.51
84935;BME280;75205;53.820;10.730;2024-01-15T08:52:03;99006.66;;;2.82;83.61
84935;BME280;75205;53.820;10.730;2024-01-15T08:54:30;99001.63;;;2.82;82.30
84935;BME280;75205;53.820;10.730;2024-01-15T08:56:56;99009.97;;;2.81;83.63
84935;BME280;75205;53.820;10.730;2024-01-15T08:59:23;99012.56;;;2.83;84.90
84935;BME280;75205;53.820;10.730;2024-01-15T09:01:52;99013.44;;;2.83;84.73
84935;BME280;75205;53.820;10.730;2024-01-15T09:04:19;99016.72;;;2.82;82.03
84935;BME280;75205;53.820;10.730;2024-01-15T09:06:46;99037.19;;;2.88;82.47
84935;BME280;75205;53.820;10.730;2024-01-15T09:09:15;99027.88;;;2.87;82.54
84935;BME280;75205;53.820;10.730;2024-01-15T09:11:42;99034.59;;;2.87;84.21
84935;BME280;75205;53.820;10.730;2024-01-15T09:14:08;99034.91;;;2.93;81.18
84935;BME280;75205;53.820;10.730;2024-01-15T09:16:35;99039.59;;;3.03;80.92
84935;BME280;75205;53.820;10.730;2024-01-15T09:19:02;99053.34;;;3.25;82.68
84935;BME280;75205;53.820;10.730;2024-01-15T09:21:29;99057.19;;;3.52;83.43
84935;BME280;75205;53.820;10.730;2024-01-15T09:23:56;99056.72;;;3.77;81.79
84935;BME280;75205;53.820;10.730;2024-01-15T09:26:22;99063.84;;;3.85;78.43
84935;BME280;75205;53.820;10.730;2024-01-15T09:28:50;99077.97;;;3.82;80.61
84935;BME280;75205;53.820;10.730;2024-01-15T09:31:16;99072.03;;;3.64;79.86
84935;BME280;75205;53.820;10.730;2024-01-15T09:33:46;99081.19;;;3.62;79.47
84935;BME280;75205;53.820;10.730;2024-01-15T09:36:13;99087.66;;;3.57;79.19
84935;BME280;75205;53.820;10.730;2024-01-15T09:38:40;99095.31;;;3.58;80.60
84935;BME280;75205;53.820;10.730;2024-01-15T09:41:06;99095.44;;;3.61;81.43
84935;BME280;75205;53.820;10.730;2024-01-15T09:43:33;99095.66;;;3.48;78.34
84935;BME280;75205;53.820;10.730;2024-01-15T09:46:00;99095.31;;;3.42;78.25
84935;BME280;75205;53.820;10.730;2024-01-15T09:48:27;99103.63;;;3.40;76.35
84935;BME280;75205;53.820;10.730;2024-01-15T09:50:54;99115.00;;;3.49;78.95
84935;BME280;75205;53.820;10.730;2024-01-15T09:53:22;99094.63;;;3.62;73.48
84935;BME280;75205;53.820;10.730;2024-01-15T09:55:49;99102.03;;;3.75;77.12
84935;BME280;75205;53.820;10.730;2024-01-15T09:58:16;99109.88;;;3.81;74.75
84935;BME280;75205;53.820;10.730;2024-01-15T10:00:42;99122.41;;;3.98;77.45
84935;BME280;75205;53.820;10.730;2024-01-15T10:03:10;99122.19;;;4.11;75.22
84935;BME280;75205;53.820;10.730;2024-01-15T10:05:37;99120.41;;;4.08;74.52
84935;BME280;75205;53.820;10.730;2024-01-15T10:08:04;99126.50;;;3.96;74.83
84935;BME280;75205;53.820;10.730;2024-01-15T10:10:31;99122.03;;;3.72;69.96
84935;BME280;75205;53.820;10.730;2024-01-15T10:12:58;99120.81;;;3.64;72.04
84935;BME280;75205;53.820;10.730;2024-01-15T10:15:28;99124.47;;;3.53;70.96
84935;BME280;75205;53.820;10.730;2024-01-15T10:17:54;99122.56;;;3.49;69.42
84935;BME280;75205;53.820;10.730;2024-01-15T10:20:21;99132.66;;;3.49;71.54
84935;BME280;75205;53.820;10.730;2024-01-15T10:22:50;99133.66;;;3.53;72.68
84935;BME280;75205;53.820;10.730;2024-01-15T10:25:17;99129.34;;;3.50;73.31
84935;BME280;75205;53.820;10.730;2024-01-15T10:27:58;99139.13;;;3.44;73.91
84935;BME280;75205;53.820;10.730;2024-01-15T10:30:25;99133.16;;;3.26;68.26
84935;BME280;75205;53.820;10.730;2024-01-15T10:33:02;99144.91;;;3.10;72.60
84935;BME280;75205;53.820;10.730;2024-01-15T10:35:33;99151.28;;;3.03;68.59
84935;BME280;75205;53.820;10.730;2024-01-15T10:38:00;99161.91;;;2.98;71.21
84935;BME280;75205;53.820;10.730;2024-01-15T10:40:27;99168.28;;;3.07;72.08
84935;BME280;75205;53.820;10.730;2024-01-15T10:42:54;99156.97;;;3.15;69.56
84935;BME280;75205;53.820;10.730;2024-01-15T10:45:20;99163.16;;;3.38;71.58
84935;BME280;75205;53.820;10.730;2024-01-15T10:47:47;99164.41;;;3.79;69.56
84935;BME280;75205;53.820;10.730;2024-01-15T10:50:15;99170.06;;;4.27;69.81
84935;BME280;75205;53.820;10.730;2024-01-15T10:52:42;99171.19;;;5.05;67.48
84935;BME280;75205;53.820;10.730;2024-01-15T10:55:12;99178.97;;;6.28;63.98
84935;BME280;75205;53.820;10.730;2024-01-15T10:57:45;99162.50;;;6.39;58.41
84935;BME280;75205;53.820;10.730;2024-01-15T11:00:13;99174.59;;;5.83;60.88
84935;BME280;75205;53.820;10.730;2024-01-15T11:02:41;99175.16;;;5.19;64.32
84935;BME280;75205;53.820;10.730;2024-01-15T11:05:09;99184.44;;;4.45;64.28
84935;BME280;75205;53.820;10.730;2024-01-15T11:07:35;99183.81;;;4.16;71.17
84935;BME280;75205;53.820;10.730;2024-01-15T11:10:05;99187.78;;;4.11;68.90
84935;BME280;75205;53.820;10.730;2024-01-15T11:12:32;99181.72;;;3.89;70.27
84935;BME280;75205;53.820;10.730;2024-01-15T11:15:03;99180.69;;;3.68;67.06
84935;BME280;75205;53.820;10.730;2024-01-15T11:20:21;99184.34;;;3.41;67.91
84935;BME280;75205;53.820;10.730;2024-01-15T11:22:47;99195.84;;;3.36;69.89
84935;BME280;75205;53.820;10.730;2024-01-15T11:25:14;99192.06;;;3.28;69.71
84935;BME280;75205;53.820;10.730;2024-01-15T11:27:42;99200.38;;;3.27;70.87
84935;BME280;75205;53.820;10.730;2024-01-15T11:30:10;99205.13;;;3.21;71.32
84935;BME280;75205;53.820;10.730;2024-01-15T11:32:37;99204.81;;;3.15;70.59
84935;BME280;75205;53.820;10.730;2024-01-15T11:35:07;99213.06;;;3.13;72.50
84935;BME280;75205;53.820;10.730;2024-01-15T11:40:18;99205.28;;;3.08;70.53
84935;BME280;75205;53.820;10.730;2024-01-15T11:42:45;99211.28;;;3.10;71.98
84935;BME280;75205;53.820;10.730;2024-01-15T11:45:11;99213.00;;;3.11;73.93
84935;BME280;75205;53.820;10.730;2024-01-15T11:50:10;99208.50;;;3.06;69.00
84935;BME280;75205;53.820;10.730;2024-01-15T11:52:38;99208.03;;;2.97;70.46
84935;BME280;75205;53.820;10.730;2024-01-15T11:57:50;99210.47;;;2.95;73.57
84935;BME280;75205;53.820;10.730;2024-01-15T12:00:16;99226.13;;;2.90;70.80
84935;BME280;75205;53.820;10.730;2024-01-15T12:02:44;99217.81;;;2.76;73.17
84935;BME280;75205;53.820;10.730;2024-01-15T12:05:12;99224.41;;;2.74;72.90
84935;BME280;75205;53.820;10.730;2024-01-15T12:07:39;99223.06;;;2.65;72.58
84935;BME280;75205;53.820;10.730;2024-01-15T12:10:09;99227.78;;;2.58;72.30
84935;BME280;75205;53.820;10.730;2024-01-15T12:15:22;99227.47;;;2.99;71.67
84935;BME280;75205;53.820;10.730;2024-01-15T12:17:48;99226.56;;;3.45;70.39
84935;BME280;75205;53.820;10.730;2024-01-15T12:20:15;99230.91;;;3.81;68.74
84935;BME280;75205;53.820;10.730;2024-01-15T12:22:43;99240.53;;;3.88;70.82
84935;BME280;75205;53.820;10.730;2024-01-15T12:25:25;99239.75;;;3.73;70.83
84935;BME280;75205;53.820;10.730;2024-01-15T12:27:55;99242.13;;;3.54;71.37
84935;BME280;75205;53.820;10.730;2024-01-15T12:30:22;99247.66;;;3.31;72.91
84935;BME280;75205;53.820;10.730;2024-01-15T12:32:49;99242.91;;;3.05;68.60
84935;BME280;75205;53.820;10.730;2024-01-15T12:35:16;99254.97;;;2.80;71.64
84935;BME280;75205;53.820;10.730;2024-01-15T12:37:43;99255.03;;;2.51;72.91
84935;BME280;75205;53.820;10.730;2024-01-15T12:40:10;99255.31;;;2.26;76.11
84935;BME280;75205;53.820;10.730;2024-01-15T12:42:37;99258.19;;;2.18;76.09
84935;BME280;75205;53.820;10.730;2024-01-15T12:45:05;99259.84;;;2.03;73.97
84935;BME280;75205;53.820;10.730;2024-01-15T12:47:32;99262.84;;;1.83;74.71
84935;BME280;75205;53.820;10.730;2024-01-15T12:49:58;99270.47;;;1.70;76.06
84935;BME280;75205;53.820;10.730;2024-01-15T12:52:41;99271.28;;;1.56;78.39
84935;BME280;75205;53.820;10.730;2024-01-15T12:55:08;99276.84;;;1.50;77.55
84935;BME280;75205;53.820;10.730;2024-01-15T12:57:35;99272.81;;;1.39;77.93
84935;BME280;75205;53.820;10.730;2024-01-15T13:00:02;99269.84;;;1.32;78.30
84935;BME280;75205;53.820;10.730;2024-01-15T13:02:33;99271.56;;;1.33;76.30
84935;BME280;75205;53.820;10.730;2024-01-15T13:05:00;99272.72;;;1.38;74.66
84935;BME280;75205;53.820;10.730;2024-01-15T13:07:27;99274.41;;;1.52;78.02
84935;BME280;75205;53.820;10.730;2024-01-15T13:09:54;99277.03;;;1.68;76.57
84935;BME280;75205;53.820;10.730;2024-01-15T13:12:20;99284.00;;;1.86;79.98